Magleby Maersk — OWJI2 — position and weather

sailwx.info

Track history (hours):
 
Tides and Currents Weather Stations Pressure Air Temp Water Temp Dewpoint Dewpoint Depression Visibility Wind Speed Wind Dir Waves Ship Positions

Magleby Maersk

Last reported at 2018-Jun-20 10:01 UTC. Time now 2018-Jun-22 05:33 UTC.
Position N 23°12' E 117°42'.

Length 399 m; draft 12.5 m.

Type: Ship (hazmat cat D). MMSI: 219018986.

Date/timePositionNaut miles runAvg speedWind from/ knotsBaromVisibWave heightAir tempDewpointWater temp
2018-Jun-20 10:01N 23°12' E 117°42'017.1
2018-Jun-20 10:00N 23°12' E 117°42'917.8
2018-Jun-20 09:30N 23°18' E 117°49'1018.7
2018-Jun-20 09:00N 23°24' E 117°57'918.7
2018-Jun-20 08:30N 23°30' E 118°05'918.5
2018-Jun-20 08:00N 23°36' E 118°12'918.5
2018-Jun-20 07:30N 23°43' E 118°19'918.6
2018-Jun-20 07:00N 23°49' E 118°27'1018.5
2018-Jun-20 06:29N 23°55' E 118°35'918.0
2018-Jun-20 06:00N 24°00' E 118°43'917.9
2018-Jun-20 05:30N 24°06' E 118°50'918.1
2018-Jun-20 05:00N 24°12' E 118°57'918.3
2018-Jun-20 04:30N 24°18' E 119°05'41014.7
2018-Jun-19 00:39N 30°35' E 122°08'4 9.8
2018-Jun-19 00:13N 30°37' E 122°03'0 0.6
2018-Jun-18 23:32N 30°38' E 122°03'0 0.0
2018-Jun-18 23:21N 30°38' E 122°03'0 0.0
2018-Jun-18 22:51N 30°38' E 122°03'0 0.0
2018-Jun-18 09:03N 30°38' E 122°03'0 0.0
2018-Jun-18 08:38N 30°38' E 122°03'0 0.4
2018-Jun-18 08:24N 30°37' E 122°03'1 3.0
2018-Jun-18 08:00N 30°36' E 122°04'3 6.5
2018-Jun-18 07:30N 30°35' E 122°07'12 9.4
2018-Jun-18 06:17N 30°33' E 122°21'  
2018-Jun-11 13:04N 37°38' E 123°11'118.9
2018-Jun-11 13:00N 37°39' E 123°10'1019.3
2018-Jun-11 12:31N 37°46' E 123°02'918.9
2018-Jun-11 12:00N 37°53' E 122°54'918.7
2018-Jun-11 11:30N 38°00' E 122°46'918.0
2018-Jun-11 11:00N 38°06' E 122°37'918.3
2018-Jun-11 10:30N 38°09' E 122°26'918.5
2018-Jun-11 10:00N 38°12' E 122°15'1018.3
2018-Jun-11 09:28N 38°14' E 122°03'918.7
2018-Jun-11 08:58N 38°17' E 121°51'1518.8
2018-Jun-11 08:10N 38°23' E 121°34'518.8
2018-Jun-11 07:54N 38°24' E 121°28'818.7
2018-Jun-11 07:30N 38°26' E 121°18'2115.9
2018-Jun-11 06:12N 38°33' E 120°53'3 9.8
2018-Jun-11 05:53N 38°34' E 120°50'1512.1
2018-Jun-11 04:37N 38°38' E 120°31'216.9
2018-Jun-11 04:31N 38°38' E 120°28'1017.4
2018-Jun-11 03:56N 38°40' E 120°16'3317.3
2018-Jun-11 02:01N 38°43' E 119°33'517.6
2018-Jun-11 01:43N 38°44' E 119°27'617.6
2018-Jun-11 01:24N 38°44' E 119°20'  
Track history (hours):
 
Tides and Currents Weather Stations Pressure Air Temp Water Temp Dewpoint Dewpoint Depression Visibility Wind Speed Wind Dir Waves Ship Positions

Magleby Maersk

Last reported at 2018-Jun-20 10:01 UTC. Time now 2018-Jun-22 05:33 UTC.
Position N 23°12' E 117°42'.

Length 399 m; draft 12.5 m.

Type: Ship (hazmat cat D). MMSI: 219018986.

Date/timePositionNaut miles runAvg speedWind from/ knotsBaromVisibWave heightAir tempDewpointWater temp
2018-Jun-20 10:01N 23°12' E 117°42'017.1
2018-Jun-20 10:00N 23°12' E 117°42'917.8
2018-Jun-20 09:30N 23°18' E 117°49'1018.7
2018-Jun-20 09:00N 23°24' E 117°57'918.7
2018-Jun-20 08:30N 23°30' E 118°05'918.5
2018-Jun-20 08:00N 23°36' E 118°12'918.5
2018-Jun-20 07:30N 23°43' E 118°19'918.6
2018-Jun-20 07:00N 23°49' E 118°27'1018.5
2018-Jun-20 06:29N 23°55' E 118°35'918.0
2018-Jun-20 06:00N 24°00' E 118°43'917.9
2018-Jun-20 05:30N 24°06' E 118°50'918.1
2018-Jun-20 05:00N 24°12' E 118°57'918.3
2018-Jun-20 04:30N 24°18' E 119°05'41014.7
2018-Jun-19 00:39N 30°35' E 122°08'4 9.8
2018-Jun-19 00:13N 30°37' E 122°03'0 0.6
2018-Jun-18 23:32N 30°38' E 122°03'0 0.0
2018-Jun-18 23:21N 30°38' E 122°03'0 0.0
2018-Jun-18 22:51N 30°38' E 122°03'0 0.0
2018-Jun-18 09:03N 30°38' E 122°03'0 0.0
2018-Jun-18 08:38N 30°38' E 122°03'0 0.4
2018-Jun-18 08:24N 30°37' E 122°03'1 3.0
2018-Jun-18 08:00N 30°36' E 122°04'3 6.5
2018-Jun-18 07:30N 30°35' E 122°07'12 9.4
2018-Jun-18 06:17N 30°33' E 122°21'  
2018-Jun-11 13:04N 37°38' E 123°11'118.9
2018-Jun-11 13:00N 37°39' E 123°10'1019.3
2018-Jun-11 12:31N 37°46' E 123°02'918.9
2018-Jun-11 12:00N 37°53' E 122°54'918.7
2018-Jun-11 11:30N 38°00' E 122°46'918.0
2018-Jun-11 11:00N 38°06' E 122°37'918.3
2018-Jun-11 10:30N 38°09' E 122°26'918.5
2018-Jun-11 10:00N 38°12' E 122°15'1018.3
2018-Jun-11 09:28N 38°14' E 122°03'918.7
2018-Jun-11 08:58N 38°17' E 121°51'1518.8
2018-Jun-11 08:10N 38°23' E 121°34'518.8
2018-Jun-11 07:54N 38°24' E 121°28'818.7
2018-Jun-11 07:30N 38°26' E 121°18'2115.9
2018-Jun-11 06:12N 38°33' E 120°53'3 9.8
2018-Jun-11 05:53N 38°34' E 120°50'1512.1
2018-Jun-11 04:37N 38°38' E 120°31'216.9
2018-Jun-11 04:31N 38°38' E 120°28'1017.4
2018-Jun-11 03:56N 38°40' E 120°16'3317.3
2018-Jun-11 02:01N 38°43' E 119°33'517.6
2018-Jun-11 01:43N 38°44' E 119°27'617.6
2018-Jun-11 01:24N 38°44' E 119°20'  

Dump ship's entire track history